sensor_id;sensor_type;location;lat;lon;timestamp;P1;durP1;ratioP1;P2;durP2;ratioP2
83814;SDS011;73829;53.826;-3.034;2024-03-23T00:54:20;6.30;;;1.60;;
83814;SDS011;73829;53.826;-3.034;2024-03-23T00:56:50;5.70;;;1.30;;
83814;SDS011;73829;53.826;-3.034;2024-03-23T00:59:21;6.90;;;1.70;;
83814;SDS011;73829;53.826;-3.034;2024-03-23T01:01:54;7.20;;;2.00;;
83814;SDS011;73829;53.826;-3.034;2024-03-23T01:07:12;5.50;;;1.40;;
83814;SDS011;73829;53.826;-3.034;2024-03-23T01:09:43;6.10;;;1.30;;
83814;SDS011;73829;53.826;-3.034;2024-03-23T01:12:13;4.90;;;1.40;;
83814;SDS011;73829;53.826;-3.034;2024-03-23T01:14:45;6.30;;;1.40;;
83814;SDS011;73829;53.826;-3.034;2024-03-23T01:17:15;8.80;;;1.70;;
83814;SDS011;73829;53.826;-3.034;2024-03-23T01:19:47;5.70;;;1.50;;
83814;SDS011;73829;53.826;-3.034;2024-03-23T01:22:17;4.20;;;1.30;;
83814;SDS011;73829;53.826;-3.034;2024-03-23T01:24:47;8.30;;;1.30;;
83814;SDS011;73829;53.826;-3.034;2024-03-23T01:27:31;5.60;;;1.20;;
83814;SDS011;73829;53.826;-3.034;2024-03-23T01:30:02;5.60;;;1.20;;
83814;SDS011;73829;53.826;-3.034;2024-03-23T01:32:34;4.70;;;1.20;;
83814;SDS011;73829;53.826;-3.034;2024-03-23T01:35:04;6.10;;;1.60;;
83814;SDS011;73829;53.826;-3.034;2024-03-23T01:37:35;6.40;;;1.20;;
83814;SDS011;73829;53.826;-3.034;2024-03-23T01:40:06;4.50;;;1.30;;
83814;SDS011;73829;53.826;-3.034;2024-03-23T01:42:40;5.30;;;1.20;;
83814;SDS011;73829;53.826;-3.034;2024-03-23T01:45:11;7.00;;;1.50;;
83814;SDS011;73829;53.826;-3.034;2024-03-23T01:47:41;5.60;;;1.50;;
83814;SDS011;73829;53.826;-3.034;2024-03-23T01:50:12;4.00;;;1.10;;
83814;SDS011;73829;53.826;-3.034;2024-03-23T01:52:43;5.80;;;1.10;;
83814;SDS011;73829;53.826;-3.034;2024-03-23T01:55:14;5.50;;;1.20;;
83814;SDS011;73829;53.826;-3.034;2024-03-23T01:57:44;5.50;;;1.20;;
83814;SDS011;73829;53.826;-3.034;2024-03-23T02:00:15;5.00;;;1.10;;
83814;SDS011;73829;53.826;-3.034;2024-03-23T02:02:46;5.90;;;1.30;;
83814;SDS011;73829;53.826;-3.034;2024-03-23T02:07:47;5.30;;;1.50;;
83814;SDS011;73829;53.826;-3.034;2024-03-23T02:10:18;7.10;;;1.40;;
83814;SDS011;73829;53.826;-3.034;2024-03-23T02:12:49;5.40;;;1.40;;
83814;SDS011;73829;53.826;-3.034;2024-03-23T02:15:20;5.80;;;1.50;;
83814;SDS011;73829;53.826;-3.034;2024-03-23T02:17:51;6.00;;;1.40;;
83814;SDS011;73829;53.826;-3.034;2024-03-23T02:20:21;4.80;;;1.10;;
83814;SDS011;73829;53.826;-3.034;2024-03-23T02:22:53;5.90;;;1.40;;
83814;SDS011;73829;53.826;-3.034;2024-03-23T02:25:23;9.60;;;1.60;;
83814;SDS011;73829;53.826;-3.034;2024-03-23T02:27:54;5.60;;;1.20;;
83814;SDS011;73829;53.826;-3.034;2024-03-23T02:30:26;4.30;;;1.30;;
83814;SDS011;73829;53.826;-3.034;2024-03-23T02:32:56;5.40;;;1.30;;
83814;SDS011;73829;53.826;-3.034;2024-03-23T02:35:27;5.40;;;1.30;;
83814;SDS011;73829;53.826;-3.034;2024-03-23T02:37:57;5.80;;;1.40;;
83814;SDS011;73829;53.826;-3.034;2024-03-23T02:40:28;5.50;;;1.20;;
83814;SDS011;73829;53.826;-3.034;2024-03-23T02:42:58;4.30;;;1.20;;
83814;SDS011;73829;53.826;-3.034;2024-03-23T02:45:29;5.30;;;1.30;;
83814;SDS011;73829;53.826;-3.034;2024-03-23T02:48:00;6.40;;;1.30;;
83814;SDS011;73829;53.826;-3.034;2024-03-23T02:53:03;3.90;;;1.30;;
83814;SDS011;73829;53.826;-3.034;2024-03-23T02:55:33;5.10;;;1.30;;
83814;SDS011;73829;53.826;-3.034;2024-03-23T02:58:04;3.80;;;0.90;;
83814;SDS011;73829;53.826;-3.034;2024-03-23T03:00:34;4.70;;;1.20;;
83814;SDS011;73829;53.826;-3.034;2024-03-23T03:03:05;3.70;;;0.90;;
83814;SDS011;73829;53.826;-3.034;2024-03-23T03:05:36;4.70;;;1.30;;
83814;SDS011;73829;53.826;-3.034;2024-03-23T03:08:07;5.70;;;1.20;;
83814;SDS011;73829;53.826;-3.034;2024-03-23T03:10:37;6.10;;;1.30;;
83814;SDS011;73829;53.826;-3.034;2024-03-23T03:13:07;6.10;;;1.50;;
83814;SDS011;73829;53.826;-3.034;2024-03-23T03:15:40;5.00;;;1.30;;
83814;SDS011;73829;53.826;-3.034;2024-03-23T03:18:12;5.50;;;1.10;;
83814;SDS011;73829;53.826;-3.034;2024-03-23T03:20:42;5.80;;;1.20;;
83814;SDS011;73829;53.826;-3.034;2024-03-23T03:23:13;3.90;;;1.30;;
83814;SDS011;73829;53.826;-3.034;2024-03-23T03:25:43;6.50;;;1.30;;
83814;SDS011;73829;53.826;-3.034;2024-03-23T03:28:14;5.50;;;1.30;;
83814;SDS011;73829;53.826;-3.034;2024-03-23T03:30:44;6.40;;;1.40;;
83814;SDS011;73829;53.826;-3.034;2024-03-23T03:33:15;6.20;;;1.00;;
83814;SDS011;73829;53.826;-3.034;2024-03-23T03:35:45;6.10;;;1.60;;
83814;SDS011;73829;53.826;-3.034;2024-03-23T03:38:16;4.80;;;1.10;;
83814;SDS011;73829;53.826;-3.034;2024-03-23T03:40:46;4.70;;;1.20;;
83814;SDS011;73829;53.826;-3.034;2024-03-23T03:43:17;5.50;;;1.10;;
83814;SDS011;73829;53.826;-3.034;2024-03-23T03:48:55;6.90;;;1.60;;
83814;SDS011;73829;53.826;-3.034;2024-03-23T03:51:25;6.10;;;1.10;;
83814;SDS011;73829;53.826;-3.034;2024-03-23T03:53:56;4.80;;;1.20;;
83814;SDS011;73829;53.826;-3.034;2024-03-23T03:56:26;5.10;;;1.10;;
83814;SDS011;73829;53.826;-3.034;2024-03-23T03:58:56;5.40;;;1.10;;
83814;SDS011;73829;53.826;-3.034;2024-03-23T04:01:27;8.50;;;1.90;;
83814;SDS011;73829;53.826;-3.034;2024-03-23T04:03:57;6.30;;;1.70;;
83814;SDS011;73829;53.826;-3.034;2024-03-23T04:06:28;4.40;;;1.00;;
83814;SDS011;73829;53.826;-3.034;2024-03-23T04:08:58;5.50;;;1.50;;
83814;SDS011;73829;53.826;-3.034;2024-03-23T04:11:30;6.00;;;1.30;;
83814;SDS011;73829;53.826;-3.034;2024-03-23T04:14:01;4.70;;;1.10;;
83814;SDS011;73829;53.826;-3.034;2024-03-23T04:16:33;5.70;;;1.10;;
83814;SDS011;73829;53.826;-3.034;2024-03-23T04:19:04;5.20;;;1.10;;
83814;SDS011;73829;53.826;-3.034;2024-03-23T04:25:15;5.00;;;1.00;;
83814;SDS011;73829;53.826;-3.034;2024-03-23T04:27:47;5.50;;;1.20;;
83814;SDS011;73829;53.826;-3.034;2024-03-23T04:30:17;6.20;;;1.30;;
83814;SDS011;73829;53.826;-3.034;2024-03-23T04:32:48;8.20;;;1.30;;
83814;SDS011;73829;53.826;-3.034;2024-03-23T04:35:19;5.10;;;1.40;;
83814;SDS011;73829;53.826;-3.034;2024-03-23T04:37:52;5.50;;;1.50;;
83814;SDS011;73829;53.826;-3.034;2024-03-23T04:40:23;7.50;;;1.50;;
83814;SDS011;73829;53.826;-3.034;2024-03-23T04:42:53;5.70;;;1.40;;
83814;SDS011;73829;53.826;-3.034;2024-03-23T04:45:24;5.90;;;1.40;;
83814;SDS011;73829;53.826;-3.034;2024-03-23T04:47:54;6.00;;;1.20;;
83814;SDS011;73829;53.826;-3.034;2024-03-23T04:50:25;4.40;;;1.00;;
83814;SDS011;73829;53.826;-3.034;2024-03-23T04:52:55;5.80;;;1.20;;
83814;SDS011;73829;53.826;-3.034;2024-03-23T04:55:26;4.00;;;1.00;;
83814;SDS011;73829;53.826;-3.034;2024-03-23T04:57:56;4.80;;;1.40;;
83814;SDS011;73829;53.826;-3.034;2024-03-23T05:00:27;5.00;;;1.10;;
83814;SDS011;73829;53.826;-3.034;2024-03-23T05:02:57;4.70;;;1.20;;
83814;SDS011;73829;53.826;-3.034;2024-03-23T05:05:27;5.30;;;1.00;;
83814;SDS011;73829;53.826;-3.034;2024-03-23T05:07:58;6.90;;;1.40;;
83814;SDS011;73829;53.826;-3.034;2024-03-23T05:10:28;4.80;;;1.30;;
83814;SDS011;73829;53.826;-3.034;2024-03-23T05:13:00;4.80;;;1.00;;
83814;SDS011;73829;53.826;-3.034;2024-03-23T05:15:30;4.80;;;1.40;;
83814;SDS011;73829;53.826;-3.034;2024-03-23T05:18:02;5.40;;;1.20;;
83814;SDS011;73829;53.826;-3.034;2024-03-23T05:20:33;5.00;;;0.90;;
83814;SDS011;73829;53.826;-3.034;2024-03-23T05:23:04;5.10;;;1.20;;
83814;SDS011;73829;53.826;-3.034;2024-03-23T05:25:34;3.90;;;1.00;;
83814;SDS011;73829;53.826;-3.034;2024-03-23T05:28:05;9.10;;;1.30;;
83814;SDS011;73829;53.826;-3.034;2024-03-23T05:30:36;3.80;;;0.80;;
83814;SDS011;73829;53.826;-3.034;2024-03-23T05:33:07;5.00;;;1.20;;
83814;SDS011;73829;53.826;-3.034;2024-03-23T05:35:37;6.10;;;1.40;;
83814;SDS011;73829;53.826;-3.034;2024-03-23T05:38:08;4.90;;;1.10;;
83814;SDS011;73829;53.826;-3.034;2024-03-23T05:40:39;6.60;;;1.30;;
83814;SDS011;73829;53.826;-3.034;2024-03-23T05:43:10;5.20;;;1.20;;
83814;SDS011;73829;53.826;-3.034;2024-03-23T05:45:40;5.90;;;1.30;;
83814;SDS011;73829;53.826;-3.034;2024-03-23T05:48:11;4.50;;;1.00;;
83814;SDS011;73829;53.826;-3.034;2024-03-23T05:50:41;4.20;;;0.90;;
83814;SDS011;73829;53.826;-3.034;2024-03-23T05:53:12;6.70;;;1.20;;
83814;SDS011;73829;53.826;-3.034;2024-03-23T05:55:43;4.20;;;1.30;;
83814;SDS011;73829;53.826;-3.034;2024-03-23T05:58:16;6.00;;;0.90;;
83814;SDS011;73829;53.826;-3.034;2024-03-23T06:00:47;5.00;;;1.10;;
83814;SDS011;73829;53.826;-3.034;2024-03-23T06:03:18;4.60;;;1.00;;
83814;SDS011;73829;53.826;-3.034;2024-03-23T06:09:36;6.00;;;1.30;;
83814;SDS011;73829;53.826;-3.034;2024-03-23T06:12:07;5.40;;;0.90;;
83814;SDS011;73829;53.826;-3.034;2024-03-23T06:17:07;4.80;;;1.00;;
83814;SDS011;73829;53.826;-3.034;2024-03-23T06:19:37;4.40;;;1.20;;
83814;SDS011;73829;53.826;-3.034;2024-03-23T06:22:08;6.00;;;1.20;;
83814;SDS011;73829;53.826;-3.034;2024-03-23T06:24:38;5.60;;;1.00;;
83814;SDS011;73829;53.826;-3.034;2024-03-23T06:27:09;3.70;;;1.00;;
83814;SDS011;73829;53.826;-3.034;2024-03-23T06:32:09;4.20;;;1.10;;
83814;SDS011;73829;53.826;-3.034;2024-03-23T06:34:42;5.00;;;1.00;;
83814;SDS011;73829;53.826;-3.034;2024-03-23T06:37:13;5.30;;;1.30;;
83814;SDS011;73829;53.826;-3.034;2024-03-23T06:39:45;6.10;;;1.10;;
83814;SDS011;73829;53.826;-3.034;2024-03-23T06:42:16;7.50;;;1.30;;
83814;SDS011;73829;53.826;-3.034;2024-03-23T06:44:46;5.30;;;0.90;;
83814;SDS011;73829;53.826;-3.034;2024-03-23T06:47:16;6.60;;;1.10;;
83814;SDS011;73829;53.826;-3.034;2024-03-23T06:49:47;3.90;;;1.20;;
83814;SDS011;73829;53.826;-3.034;2024-03-23T06:52:17;4.70;;;1.10;;
83814;SDS011;73829;53.826;-3.034;2024-03-23T06:54:48;6.30;;;1.70;;
83814;SDS011;73829;53.826;-3.034;2024-03-23T06:57:18;4.90;;;1.00;;
83814;SDS011;73829;53.826;-3.034;2024-03-23T06:59:48;5.50;;;1.00;;
83814;SDS011;73829;53.826;-3.034;2024-03-23T07:02:20;8.00;;;1.30;;
83814;SDS011;73829;53.826;-3.034;2024-03-23T07:04:51;5.30;;;1.30;;
83814;SDS011;73829;53.826;-3.034;2024-03-23T07:07:22;4.00;;;0.90;;
83814;SDS011;73829;53.826;-3.034;2024-03-23T07:09:52;6.00;;;1.20;;
83814;SDS011;73829;53.826;-3.034;2024-03-23T07:12:23;5.90;;;1.00;;
83814;SDS011;73829;53.826;-3.034;2024-03-23T07:14:53;5.70;;;1.00;;
83814;SDS011;73829;53.826;-3.034;2024-03-23T07:17:24;5.10;;;1.20;;
83814;SDS011;73829;53.826;-3.034;2024-03-23T07:19:54;6.50;;;1.00;;
83814;SDS011;73829;53.826;-3.034;2024-03-23T07:22:24;4.80;;;1.00;;
83814;SDS011;73829;53.826;-3.034;2024-03-23T07:24:55;5.70;;;0.90;;
83814;SDS011;73829;53.826;-3.034;2024-03-23T07:27:25;6.10;;;1.10;;
83814;SDS011;73829;53.826;-3.034;2024-03-23T07:29:56;4.40;;;1.10;;
83814;SDS011;73829;53.826;-3.034;2024-03-23T07:32:26;5.40;;;0.90;;
83814;SDS011;73829;53.826;-3.034;2024-03-23T07:38:37;5.60;;;1.20;;
83814;SDS011;73829;53.826;-3.034;2024-03-23T07:41:09;3.70;;;1.00;;
83814;SDS011;73829;53.826;-3.034;2024-03-23T07:43:40;6.80;;;1.30;;
83814;SDS011;73829;53.826;-3.034;2024-03-23T07:46:11;4.60;;;1.00;;
83814;SDS011;73829;53.826;-3.034;2024-03-23T07:51:13;6.20;;;1.00;;
83814;SDS011;73829;53.826;-3.034;2024-03-23T07:53:45;4.70;;;1.10;;
83814;SDS011;73829;53.826;-3.034;2024-03-23T07:56:16;6.10;;;1.10;;
83814;SDS011;73829;53.826;-3.034;2024-03-23T07:58:47;3.90;;;0.90;;
83814;SDS011;73829;53.826;-3.034;2024-03-23T08:01:17;5.00;;;1.20;;
83814;SDS011;73829;53.826;-3.034;2024-03-23T08:03:49;4.90;;;0.90;;
83814;SDS011;73829;53.826;-3.034;2024-03-23T08:06:21;5.50;;;1.10;;
83814;SDS011;73829;53.826;-3.034;2024-03-23T08:08:52;5.60;;;1.00;;
83814;SDS011;73829;53.826;-3.034;2024-03-23T08:11:28;5.70;;;0.80;;
83814;SDS011;73829;53.826;-3.034;2024-03-23T08:13:59;7.40;;;1.20;;
83814;SDS011;73829;53.826;-3.034;2024-03-23T08:16:30;7.00;;;1.30;;
83814;SDS011;73829;53.826;-3.034;2024-03-23T08:19:01;4.90;;;1.10;;
83814;SDS011;73829;53.826;-3.034;2024-03-23T08:21:32;3.50;;;0.80;;
83814;SDS011;73829;53.826;-3.034;2024-03-23T08:24:03;5.80;;;1.10;;
83814;SDS011;73829;53.826;-3.034;2024-03-23T08:26:34;5.20;;;1.10;;
83814;SDS011;73829;53.826;-3.034;2024-03-23T08:29:05;5.60;;;1.10;;
83814;SDS011;73829;53.826;-3.034;2024-03-23T08:31:36;5.40;;;1.10;;
83814;SDS011;73829;53.826;-3.034;2024-03-23T08:34:06;5.30;;;1.20;;
83814;SDS011;73829;53.826;-3.034;2024-03-23T08:36:37;5.20;;;0.90;;
83814;SDS011;73829;53.826;-3.034;2024-03-23T08:39:07;5.30;;;1.20;;
83814;SDS011;73829;53.826;-3.034;2024-03-23T08:48:44;5.30;;;1.30;;
83814;SDS011;73829;53.826;-3.034;2024-03-23T08:51:16;6.00;;;1.50;;
83814;SDS011;73829;53.826;-3.034;2024-03-23T08:56:16;6.30;;;0.90;;
83814;SDS011;73829;53.826;-3.034;2024-03-23T08:58:47;3.70;;;0.90;;
83814;SDS011;73829;53.826;-3.034;2024-03-23T09:01:18;6.40;;;1.20;;
83814;SDS011;73829;53.826;-3.034;2024-03-23T09:03:48;7.20;;;1.10;;
83814;SDS011;73829;53.826;-3.034;2024-03-23T09:06:19;6.20;;;1.30;;
83814;SDS011;73829;53.826;-3.034;2024-03-23T09:08:50;5.00;;;1.00;;
83814;SDS011;73829;53.826;-3.034;2024-03-23T09:11:20;4.70;;;0.90;;
83814;SDS011;73829;53.826;-3.034;2024-03-23T09:13:51;5.00;;;1.00;;
83814;SDS011;73829;53.826;-3.034;2024-03-23T09:16:21;5.00;;;1.10;;
83814;SDS011;73829;53.826;-3.034;2024-03-23T09:18:52;6.90;;;1.20;;
83814;SDS011;73829;53.826;-3.034;2024-03-23T09:21:22;5.90;;;1.10;;
83814;SDS011;73829;53.826;-3.034;2024-03-23T09:23:52;4.70;;;1.30;;
83814;SDS011;73829;53.826;-3.034;2024-03-23T09:26:23;5.70;;;1.00;;
83814;SDS011;73829;53.826;-3.034;2024-03-23T09:28:53;6.30;;;0.90;;
83814;SDS011;73829;53.826;-3.034;2024-03-23T09:31:24;6.40;;;1.40;;
83814;SDS011;73829;53.826;-3.034;2024-03-23T09:33:54;7.30;;;1.20;;
83814;SDS011;73829;53.826;-3.034;2024-03-23T09:51:08;6.50;;;1.50;;
83814;SDS011;73829;53.826;-3.034;2024-03-23T09:53:38;5.90;;;1.40;;
83814;SDS011;73829;53.826;-3.034;2024-03-23T09:56:09;6.40;;;1.30;;
83814;SDS011;73829;53.826;-3.034;2024-03-23T09:58:39;7.70;;;1.60;;
83814;SDS011;73829;53.826;-3.034;2024-03-23T10:01:10;5.30;;;1.30;;
83814;SDS011;73829;53.826;-3.034;2024-03-23T10:03:44;5.30;;;1.40;;
83814;SDS011;73829;53.826;-3.034;2024-03-23T10:06:16;5.80;;;1.20;;
83814;SDS011;73829;53.826;-3.034;2024-03-23T10:08:52;5.60;;;1.60;;
83814;SDS011;73829;53.826;-3.034;2024-03-23T10:11:23;5.40;;;1.40;;
83814;SDS011;73829;53.826;-3.034;2024-03-23T10:13:54;5.80;;;1.50;;
83814;SDS011;73829;53.826;-3.034;2024-03-23T10:16:25;6.10;;;1.70;;
83814;SDS011;73829;53.826;-3.034;2024-03-23T10:18:55;5.60;;;2.30;;
83814;SDS011;73829;53.826;-3.034;2024-03-23T10:21:26;6.80;;;2.40;;
83814;SDS011;73829;53.826;-3.034;2024-03-23T10:38:39;8.30;;;3.80;;
83814;SDS011;73829;53.826;-3.034;2024-03-23T10:41:11;9.90;;;4.00;;
83814;SDS011;73829;53.826;-3.034;2024-03-23T10:43:41;10.50;;;4.10;;
83814;SDS011;73829;53.826;-3.034;2024-03-23T10:46:13;7.10;;;3.70;;
83814;SDS011;73829;53.826;-3.034;2024-03-23T10:48:44;10.60;;;4.10;;
83814;SDS011;73829;53.826;-3.034;2024-03-23T10:51:15;10.50;;;4.20;;
83814;SDS011;73829;53.826;-3.034;2024-03-23T10:53:46;9.30;;;4.80;;
83814;SDS011;73829;53.826;-3.034;2024-03-23T10:56:18;10.70;;;5.10;;
83814;SDS011;73829;53.826;-3.034;2024-03-23T10:58:50;11.70;;;5.10;;
83814;SDS011;73829;53.826;-3.034;2024-03-23T11:01:21;13.70;;;6.10;;
83814;SDS011;73829;53.826;-3.034;2024-03-23T11:03:52;10.30;;;5.00;;
83814;SDS011;73829;53.826;-3.034;2024-03-23T11:15:04;10.90;;;4.80;;
83814;SDS011;73829;53.826;-3.034;2024-03-23T11:17:39;9.00;;;4.20;;
83814;SDS011;73829;53.826;-3.034;2024-03-23T11:20:10;10.70;;;4.30;;
83814;SDS011;73829;53.826;-3.034;2024-03-23T11:22:44;8.50;;;3.60;;
83814;SDS011;73829;53.826;-3.034;2024-03-23T11:25:17;10.70;;;3.80;;
83814;SDS011;73829;53.826;-3.034;2024-03-23T11:27:49;9.90;;;3.60;;
83814;SDS011;73829;53.826;-3.034;2024-03-23T11:30:22;8.10;;;3.60;;
83814;SDS011;73829;53.826;-3.034;2024-03-23T11:32:54;9.40;;;3.30;;
83814;SDS011;73829;53.826;-3.034;2024-03-23T11:35:28;8.10;;;3.40;;
83814;SDS011;73829;53.826;-3.034;2024-03-23T11:38:04;11.10;;;3.50;;
83814;SDS011;73829;53.826;-3.034;2024-03-23T11:40:36;8.60;;;3.30;;
83814;SDS011;73829;53.826;-3.034;2024-03-23T11:43:08;9.80;;;3.40;;
83814;SDS011;73829;53.826;-3.034;2024-03-23T11:53:16;7.40;;;2.80;;
83814;SDS011;73829;53.826;-3.034;2024-03-23T11:55:48;6.20;;;2.50;;
83814;SDS011;73829;53.826;-3.034;2024-03-23T11:58:20;8.00;;;2.60;;
83814;SDS011;73829;53.826;-3.034;2024-03-23T12:00:52;8.80;;;2.80;;
83814;SDS011;73829;53.826;-3.034;2024-03-23T12:03:23;7.90;;;2.70;;
83814;SDS011;73829;53.826;-3.034;2024-03-23T12:05:58;6.10;;;2.40;;
83814;SDS011;73829;53.826;-3.034;2024-03-23T12:08:30;7.10;;;2.80;;
83814;SDS011;73829;53.826;-3.034;2024-03-23T12:11:06;7.40;;;2.60;;
83814;SDS011;73829;53.826;-3.034;2024-03-23T12:13:39;6.40;;;2.50;;
83814;SDS011;73829;53.826;-3.034;2024-03-23T12:16:11;7.40;;;2.40;;
83814;SDS011;73829;53.826;-3.034;2024-03-23T12:18:43;6.10;;;2.10;;
83814;SDS011;73829;53.826;-3.034;2024-03-23T12:21:15;8.60;;;2.40;;
83814;SDS011;73829;53.826;-3.034;2024-03-23T12:26:16;6.30;;;1.90;;
83814;SDS011;73829;53.826;-3.034;2024-03-23T12:28:47;5.30;;;1.90;;
83814;SDS011;73829;53.826;-3.034;2024-03-23T12:31:18;6.80;;;2.50;;
83814;SDS011;73829;53.826;-3.034;2024-03-23T12:40:34;6.00;;;1.60;;
83814;SDS011;73829;53.826;-3.034;2024-03-23T12:43:05;6.90;;;1.90;;
83814;SDS011;73829;53.826;-3.034;2024-03-23T12:45:36;7.10;;;1.80;;
83814;SDS011;73829;53.826;-3.034;2024-03-23T12:48:07;6.00;;;2.30;;
83814;SDS011;73829;53.826;-3.034;2024-03-23T12:50:38;7.00;;;1.70;;
83814;SDS011;73829;53.826;-3.034;2024-03-23T12:53:08;7.00;;;2.20;;
83814;SDS011;73829;53.826;-3.034;2024-03-23T12:55:39;5.90;;;1.60;;
83814;SDS011;73829;53.826;-3.034;2024-03-23T12:58:09;4.70;;;1.50;;
83814;SDS011;73829;53.826;-3.034;2024-03-23T13:00:40;6.50;;;2.00;;
83814;SDS011;73829;53.826;-3.034;2024-03-23T13:03:13;6.60;;;2.10;;
83814;SDS011;73829;53.826;-3.034;2024-03-23T13:05:46;7.90;;;1.70;;
83814;SDS011;73829;53.826;-3.034;2024-03-23T13:08:22;7.50;;;1.90;;
83814;SDS011;73829;53.826;-3.034;2024-03-23T13:10:53;5.80;;;1.80;;
83814;SDS011;73829;53.826;-3.034;2024-03-23T13:13:23;5.80;;;1.50;;
83814;SDS011;73829;53.826;-3.034;2024-03-23T13:27:08;5.70;;;1.20;;
83814;SDS011;73829;53.826;-3.034;2024-03-23T13:29:40;6.60;;;1.50;;
83814;SDS011;73829;53.826;-3.034;2024-03-23T13:32:11;6.40;;;1.30;;
83814;SDS011;73829;53.826;-3.034;2024-03-23T13:34:42;5.10;;;1.20;;
83814;SDS011;73829;53.826;-3.034;2024-03-23T13:37:12;6.20;;;1.20;;
83814;SDS011;73829;53.826;-3.034;2024-03-23T13:39:43;6.10;;;1.40;;
83814;SDS011;73829;53.826;-3.034;2024-03-23T13:42:13;4.40;;;1.00;;
83814;SDS011;73829;53.826;-3.034;2024-03-23T13:44:44;6.80;;;1.40;;
83814;SDS011;73829;53.826;-3.034;2024-03-23T13:47:15;6.80;;;1.20;;
83814;SDS011;73829;53.826;-3.034;2024-03-23T13:49:45;5.10;;;1.00;;
83814;SDS011;73829;53.826;-3.034;2024-03-23T13:52:16;5.10;;;1.00;;
83814;SDS011;73829;53.826;-3.034;2024-03-23T13:54:50;5.10;;;1.10;;
83814;SDS011;73829;53.826;-3.034;2024-03-23T13:57:20;5.70;;;0.90;;
83814;SDS011;73829;53.826;-3.034;2024-03-23T14:10:55;4.60;;;1.00;;
83814;SDS011;73829;53.826;-3.034;2024-03-23T14:13:26;4.70;;;0.90;;
83814;SDS011;73829;53.826;-3.034;2024-03-23T14:15:58;6.50;;;1.60;;
83814;SDS011;73829;53.826;-3.034;2024-03-23T14:18:29;6.70;;;1.50;;
83814;SDS011;73829;53.826;-3.034;2024-03-23T14:21:00;7.30;;;1.60;;
83814;SDS011;73829;53.826;-3.034;2024-03-23T14:23:30;5.40;;;1.10;;
83814;SDS011;73829;53.826;-3.034;2024-03-23T14:26:02;7.30;;;1.30;;
83814;SDS011;73829;53.826;-3.034;2024-03-23T14:28:34;8.30;;;1.50;;
83814;SDS011;73829;53.826;-3.034;2024-03-23T14:31:04;6.50;;;1.40;;
83814;SDS011;73829;53.826;-3.034;2024-03-23T14:33:38;8.20;;;1.40;;
83814;SDS011;73829;53.826;-3.034;2024-03-23T14:36:13;5.10;;;1.20;;
83814;SDS011;73829;53.826;-3.034;2024-03-23T14:38:48;6.30;;;1.60;;
83814;SDS011;73829;53.826;-3.034;2024-03-23T14:41:19;6.50;;;1.30;;
83814;SDS011;73829;53.826;-3.034;2024-03-23T14:43:50;5.40;;;1.40;;
83814;SDS011;73829;53.826;-3.034;2024-03-23T14:46:22;8.00;;;1.10;;
83814;SDS011;73829;53.826;-3.034;2024-03-23T14:48:52;7.50;;;1.60;;
83814;SDS011;73829;53.826;-3.034;2024-03-23T14:51:23;6.80;;;1.20;;
83814;SDS011;73829;53.826;-3.034;2024-03-23T14:53:55;6.90;;;1.50;;
83814;SDS011;73829;53.826;-3.034;2024-03-23T15:03:47;6.70;;;1.30;;
83814;SDS011;73829;53.826;-3.034;2024-03-23T15:06:20;7.60;;;1.60;;
83814;SDS011;73829;53.826;-3.034;2024-03-23T15:08:52;6.20;;;1.90;;
83814;SDS011;73829;53.826;-3.034;2024-03-23T15:11:23;5.60;;;1.30;;
83814;SDS011;73829;53.826;-3.034;2024-03-23T15:13:53;6.10;;;1.20;;
83814;SDS011;73829;53.826;-3.034;2024-03-23T15:16:23;5.60;;;1.10;;
83814;SDS011;73829;53.826;-3.034;2024-03-23T15:18:54;6.30;;;1.30;;
83814;SDS011;73829;53.826;-3.034;2024-03-23T15:21:24;5.20;;;1.20;;
83814;SDS011;73829;53.826;-3.034;2024-03-23T15:23:55;6.90;;;1.40;;
83814;SDS011;73829;53.826;-3.034;2024-03-23T15:26:26;6.80;;;1.30;;
83814;SDS011;73829;53.826;-3.034;2024-03-23T15:28:57;8.80;;;1.70;;
83814;SDS011;73829;53.826;-3.034;2024-03-23T15:31:40;5.90;;;1.30;;
83814;SDS011;73829;53.826;-3.034;2024-03-23T15:34:10;6.60;;;1.70;;
83814;SDS011;73829;53.826;-3.034;2024-03-23T15:36:41;6.00;;;1.40;;
83814;SDS011;73829;53.826;-3.034;2024-03-23T15:53:54;6.00;;;1.60;;
83814;SDS011;73829;53.826;-3.034;2024-03-23T15:56:25;9.00;;;2.00;;
83814;SDS011;73829;53.826;-3.034;2024-03-23T15:58:57;7.90;;;1.80;;
83814;SDS011;73829;53.826;-3.034;2024-03-23T16:01:33;5.60;;;1.60;;
83814;SDS011;73829;53.826;-3.034;2024-03-23T16:04:03;7.30;;;1.40;;
83814;SDS011;73829;53.826;-3.034;2024-03-23T16:06:34;7.50;;;1.80;;
83814;SDS011;73829;53.826;-3.034;2024-03-23T16:09:06;5.90;;;1.20;;
83814;SDS011;73829;53.826;-3.034;2024-03-23T16:11:39;7.00;;;1.80;;
83814;SDS011;73829;53.826;-3.034;2024-03-23T16:14:11;7.10;;;1.90;;
83814;SDS011;73829;53.826;-3.034;2024-03-23T16:16:41;6.70;;;2.00;;
83814;SDS011;73829;53.826;-3.034;2024-03-23T16:19:12;6.60;;;1.60;;
83814;SDS011;73829;53.826;-3.034;2024-03-23T16:21:43;5.70;;;1.40;;
83814;SDS011;73829;53.826;-3.034;2024-03-23T16:28:10;6.90;;;1.60;;
83814;SDS011;73829;53.826;-3.034;2024-03-23T16:30:41;6.30;;;2.00;;
83814;SDS011;73829;53.826;-3.034;2024-03-23T16:33:12;5.60;;;1.50;;
83814;SDS011;73829;53.826;-3.034;2024-03-23T16:35:42;4.80;;;1.10;;
83814;SDS011;73829;53.826;-3.034;2024-03-23T16:38:13;7.00;;;1.40;;
83814;SDS011;73829;53.826;-3.034;2024-03-23T16:40:44;6.40;;;1.70;;
83814;SDS011;73829;53.826;-3.034;2024-03-23T16:43:24;6.40;;;1.40;;
83814;SDS011;73829;53.826;-3.034;2024-03-23T16:45:56;6.90;;;1.40;;
83814;SDS011;73829;53.826;-3.034;2024-03-23T16:48:28;6.10;;;1.40;;
83814;SDS011;73829;53.826;-3.034;2024-03-23T16:51:00;7.10;;;1.30;;
83814;SDS011;73829;53.826;-3.034;2024-03-23T16:53:32;5.10;;;1.50;;
83814;SDS011;73829;53.826;-3.034;2024-03-23T16:56:03;8.80;;;1.90;;
83814;SDS011;73829;53.826;-3.034;2024-03-23T16:58:35;5.30;;;1.50;;
83814;SDS011;73829;53.826;-3.034;2024-03-23T17:01:08;6.30;;;1.50;;
83814;SDS011;73829;53.826;-3.034;2024-03-23T17:03:47;5.30;;;1.50;;
83814;SDS011;73829;53.826;-3.034;2024-03-23T17:06:19;4.80;;;1.20;;
83814;SDS011;73829;53.826;-3.034;2024-03-23T17:08:52;6.50;;;1.50;;
83814;SDS011;73829;53.826;-3.034;2024-03-23T17:11:23;4.70;;;1.20;;
83814;SDS011;73829;53.826;-3.034;2024-03-23T17:13:53;6.40;;;1.90;;
83814;SDS011;73829;53.826;-3.034;2024-03-23T17:16:24;7.20;;;1.50;;
83814;SDS011;73829;53.826;-3.034;2024-03-23T17:18:57;8.10;;;1.90;;
83814;SDS011;73829;53.826;-3.034;2024-03-23T17:21:28;6.70;;;2.00;;
83814;SDS011;73829;53.826;-3.034;2024-03-23T17:23:58;9.10;;;2.50;;
83814;SDS011;73829;53.826;-3.034;2024-03-23T17:26:30;8.20;;;2.10;;
83814;SDS011;73829;53.826;-3.034;2024-03-23T17:29:00;9.10;;;2.60;;
83814;SDS011;73829;53.826;-3.034;2024-03-23T17:31:32;7.90;;;2.70;;
83814;SDS011;73829;53.826;-3.034;2024-03-23T17:34:02;9.40;;;2.80;;
83814;SDS011;73829;53.826;-3.034;2024-03-23T17:36:32;8.40;;;2.80;;
83814;SDS011;73829;53.826;-3.034;2024-03-23T17:39:06;7.80;;;2.80;;
83814;SDS011;73829;53.826;-3.034;2024-03-23T17:41:37;8.70;;;2.90;;
83814;SDS011;73829;53.826;-3.034;2024-03-23T17:44:07;7.70;;;2.60;;
83814;SDS011;73829;53.826;-3.034;2024-03-23T18:01:24;9.70;;;2.70;;
83814;SDS011;73829;53.826;-3.034;2024-03-23T18:06:23;8.00;;;2.30;;
83814;SDS011;73829;53.826;-3.034;2024-03-23T18:08:54;10.00;;;3.00;;
83814;SDS011;73829;53.826;-3.034;2024-03-23T18:11:25;10.40;;;2.70;;
83814;SDS011;73829;53.826;-3.034;2024-03-23T18:13:56;9.90;;;2.60;;
83814;SDS011;73829;53.826;-3.034;2024-03-23T18:16:27;10.70;;;2.90;;
83814;SDS011;73829;53.826;-3.034;2024-03-23T18:18:58;9.20;;;2.50;;
83814;SDS011;73829;53.826;-3.034;2024-03-23T18:23:58;7.30;;;2.20;;
83814;SDS011;73829;53.826;-3.034;2024-03-23T18:26:29;10.70;;;3.00;;
83814;SDS011;73829;53.826;-3.034;2024-03-23T18:29:01;9.20;;;3.00;;
83814;SDS011;73829;53.826;-3.034;2024-03-23T18:31:32;9.70;;;2.70;;